• Join FlightAware (Why Join?)
  • Login
  • US Flag 
10:47PM EDT


 

Airport Tracker/Info


-or-


 

Live Flight TrackerFlight Track Log ✈ LOF3416 ✈ 29-Apr-2013 ✈ KIAD - KDAY

Flight Track Log - Related Links

Times and Time Zones

All times are in EDT time to prevent confusion due to time zone crossing. See the LOF3416 flight status page for this flight to view local times or setup timezone preferences in your user account.

Time Position Orientation Groundspeed Altitude Reporting Facility
EDT Latitude Longitude Course Direction KTS MPH feet Rate Location/Type
10:29PM 38.9000 -77.5000 270° West 217 250 2,800  Level Potomac TRACON
10:30PM 38.8856 -77.6425 263° West 279 321 6,300 2,040 Climbing Washington Center
10:31PM 38.8819 -77.7278 267° West 279 321 8,300 1,920 Climbing Washington Center
10:32PM 38.8758 -77.8367 266° West 279 321 10,300 1,560 Climbing Washington Center
10:33PM 38.8778 -77.9461 271° West 290 334 11,500 1,080 Climbing Washington Center
10:34PM 38.9500 -78.3054 270° West  Level FlightAware Approximate
10:34PM 38.9111 -78.0567 291° West 303 349 12,500  Level Washington Center
10:35PM 38.9464 -78.1672 292° West 325 374 13,700 1,140 Climbing Washington Center
10:36PM 38.9622 -78.2906 279° West 337 388 14,800 1,080 Climbing Washington Center
10:37PM 38.9658 -78.4136 272° West 342 394 15,900 1,080 Climbing Washington Center
10:38PM 38.9711 -78.5392 273° West 352 405 17,000 960 Climbing Washington Center
10:39PM 38.9742 -78.6675 272° West 352 405 17,900 960 Climbing Washington Center
10:40PM 38.9772 -78.7933 272° West 357 411 19,000 1,080 Climbing Washington Center
10:41PM 38.9842 -78.9217 274° West 357 411 20,100 1,080 Climbing Washington Center
10:42PM 38.9931 -79.0478 275° West 362 417 21,200 1,080 Climbing Washington Center
10:43PM 39.0039 -79.1764 276° West 367 422 22,300 960 Climbing Washington Center
10:44PM 39.0111 -79.2783 275° West 367 422 23,200 840 Climbing Washington Center
10:45PM 39.0214 -79.4178 275° West 367 422 24,000 360 Climbing Washington Center
10:46PM 39.0297 -79.5517 275° West 372 428 24,000  Level Washington Center
10:47PM 39.0408 -79.7153 275° West 406 467 24,000  Level Washington Center
10:48PM 39.0531 -79.8417 277° West 406 467 24,000  Level Washington Center
10:49PM 39.0622 -79.9894 275° West 411 473 24,000  Level Washington Center
10:51PM 39.0764 -80.2328 274° West 410 472 24,000  Level Indianapolis Center
10:52PM 39.0853 -80.3806 274° West 414 476 24,000  Level Indianapolis Center
10:53PM 39.0953 -80.5261 275° West 412 474 24,000  Level Indianapolis Center
10:54PM 39.1206 -80.6692 283° West 414 476 24,000  Level Indianapolis Center
10:55PM 39.1536 -80.8081 287° West 410 472 24,000  Level Indianapolis Center
10:56PM 39.1931 -80.9772 287° West 413 475 24,000  Level Indianapolis Center
10:57PM 39.2267 -81.1169 287° West 412 474 24,000  Level Indianapolis Center
10:58PM 39.2586 -81.2583 286° West 413 475 24,000  Level Indianapolis Center
10:59PM 39.2925 -81.3992 287° West 413 475 24,000  Level Indianapolis Center
11:00PM 39.3247 -81.5406 286° West 414 476 24,000  Level Indianapolis Center
11:01PM 39.3564 -81.6828 286° West 414 476 24,000  Level Indianapolis Center
11:02PM 39.3889 -81.8239 287° West 411 473 24,000  Level Indianapolis Center
11:03PM 39.4217 -81.9656 287° West 412 474 24,000  Level Indianapolis Center
11:04PM 39.4528 -82.1072 286° West 411 473 24,000  Level Indianapolis Center
11:05PM 39.4867 -82.2622 286° West 411 473 24,000 -720 Level Indianapolis Center
11:06PM 39.5175 -82.4025 286° West 404 465 22,600 -1,500 Descending Indianapolis Center
11:07PM 39.5503 -82.5481 286° West 415 478 21,000 -1,560 Descending Indianapolis Center
11:08PM 39.5806 -82.6892 286° West 405 466 19,500 -1,560 Descending Indianapolis Center
11:09PM 39.6100 -82.8267 286° West 395 455 17,900 -1,500 Descending Indianapolis Center
11:10PM 39.6394 -82.9614 286° West 386 444 16,500 -1,440 Descending Indianapolis Center
11:11PM 39.6683 -83.0944 286° West 381 438 15,000 -1,680 Descending Indianapolis Center
11:12PM 39.7000 -83.2453 285° West 369 425 13,100 -1,620 Descending Indianapolis Center
11:13PM 39.7275 -83.3744 286° West 368 423 11,700 -1,320 Descending Indianapolis Center
11:14PM 39.7364 -83.4222 284° West 366 421 11,300 -720 Descending Indianapolis Center
11:14PM 39.7506 -83.4847 286° West 369 425 11,000 -660 Descending Indianapolis Center
11:15PM 39.7769 -83.5847 289° West 363 418 10,500 -720 Descending Indianapolis Center
11:15PM 39.7856 -83.6108 293° West 358 412 10,300 -660 Descending Indianapolis Center
11:16PM 39.8078 -83.6781 293° West 352 405 10,000 -300 Descending Indianapolis Center
11:16PM 39.8253 -83.7308 293° West 355 409 10,000  Level Indianapolis Center
11:17PM 39.8436 -83.7886 292° West 312 359 10,000 -540 Level Indianapolis Center
11:17PM 39.8589 -83.8303 296° West 291 335 9,500 -2,400 Descending Indianapolis Center
11:18PM 39.8742 -83.8822 291° West 260 299 7,600 -3,600 Descending Indianapolis Center
11:18PM 39.8931 -83.9325 296° West 269 310 5,800 -2,700 Descending Indianapolis Center
11:19PM 39.9033 -83.9675 291° West 259 298 4,900 -1,680 Descending Indianapolis Center
11:19PM 39.9222 -84.0206 295° West 263 303 4,100 -840 Descending Indianapolis Center
11:20PM 39.9339 -84.0586 292° West 268 308 4,100  Level Indianapolis Center